Amboy, Indiana
Current Conditions -  °F | °C
As of 11:55 PM on Sunday 21 Dec 2014 (Local Time) from KOKK Reporting Station
Clear Clear  
Wind Chill: 22°   Ceiling: Unl
Heat Index: 28°   Visibility: 5mi
Dew Point: 25°   Wind: 6mph
Humidity: 86%   Direction: 140°SE
Pressure: 30.09"   Gusts: NA
Location:  40.6°N, 85.93°W
Report Text: KOKK 220455Z AUTO 14005KT 5SM CLR M02/M04 A3009 RMK AO1
Loading
Personal Weather Stations






























Interactive Weather Map New forecast layout! Learn more

10-Day Weather Forecast

Advertisements
Track Severe Weather on mobile